Frederike Selmer — V7QY8 — position and weather

sailwx.info

Track history (hours):
 
Tides and Currents Weather Stations Pressure Air Temp Water Temp Dewpoint Dewpoint Depression Visibility Wind Speed Wind Dir Waves Ship Positions

Frederike Selmer

Last reported at 2015-Feb-27 09:33 UTC. Time now 2015-Mar-03 03:12 UTC.
Position N 36°02' W 005°11'.

Length 188 m; draft 12.6 m.

Type: Cargo ship. MMSI: 538090377.

Date/timePositionNaut miles runAvg speedWind from/ knotsBaromVisibWave heightAir tempDewpointWater temp
2015-Feb-27 09:33N 36°02' W 005°11'1414.3
2015-Feb-27 08:33N 35°57' W 005°28'16012.1
2015-Feb-26 19:20N 36°26' W 008°43'8510.8
2015-Feb-26 11:27N 37°34' W 009°46'1112.0
2015-Feb-26 10:31N 37°45' W 009°50'3511.7
2015-Feb-26 07:31N 38°19' W 009°59'1212.3
2015-Feb-26 06:33N 38°30' W 010°03'1212.3
2015-Feb-26 05:33N 38°43' W 010°06'  
2015-Feb-22 04:08N 50°17' W 001°22'8312.1
2015-Feb-21 21:16N 50°40' E 000°44'1213.4
2015-Feb-21 20:24N 50°48' E 000°57'1214.5
2015-Feb-21 19:34N 50°56' E 001°12'1414.1
2015-Feb-21 18:34N 51°05' E 001°29'1212.1
2015-Feb-21 17:34N 51°13' E 001°44'1111.0
2015-Feb-21 16:34N 51°22' E 001°52'10 9.9
2015-Feb-21 15:34N 51°30' E 002°02'1010.0
2015-Feb-21 14:33N 51°38' E 002°13'46910.6
2015-Feb-19 18:25N 57°48' E 010°31'11 8.8
2015-Feb-19 17:12N 57°46' E 010°50'6 9.0
2015-Feb-19 16:31N 57°42' E 010°59'1112.0
2015-Feb-19 15:33N 57°34' E 011°14'1212.0
2015-Feb-19 14:33N 57°24' E 011°28'1312.6
2015-Feb-19 13:33N 57°12' E 011°36'1212.1
2015-Feb-19 12:33N 57°01' E 011°44'1212.1
2015-Feb-19 11:33N 56°50' E 011°51'1110.6
2015-Feb-19 10:33N 56°39' E 011°48'1212.0
2015-Feb-19 09:32N 56°29' E 011°36'1512.0
2015-Feb-19 08:19N 56°16' E 011°22'1011.6
2015-Feb-19 07:30N 56°08' E 011°13'5510.3
2015-Feb-19 02:07N 55°13' E 011°06'710.7
2015-Feb-19 01:29N 55°07' E 010°59'2010.1
2015-Feb-18 23:27N 54°48' E 010°50'9 9.0
2015-Feb-18 22:28N 54°39' E 010°52'1010.9
2015-Feb-18 21:33N 54°36' E 011°08'1211.6
2015-Feb-18 20:33N 54°32' E 011°27'1110.8
2015-Feb-18 19:33N 54°28' E 011°44'1010.1
2015-Feb-18 18:33N 54°26' E 012°01'9 9.0
2015-Feb-18 17:33N 54°31' E 012°14'8 7.5
2015-Feb-18 16:33N 54°38' E 012°20'1010.3
2015-Feb-18 15:33N 54°43' E 012°35'1110.7
2015-Feb-18 14:30N 54°49' E 012°52'1010.5
2015-Feb-18 13:33N 54°52' E 013°08'1010.2
2015-Feb-18 12:33N 54°52' E 013°26'1111.0
2015-Feb-18 11:33N 54°47' E 013°43'1110.9
2015-Feb-18 10:33N 54°42' E 014°00'1111.0
2015-Feb-18 09:33N 54°39' E 014°18'1110.8
2015-Feb-18 08:30N 54°38' E 014°38'11611.6
2015-Feb-17 22:33N 54°59' E 017°55'1211.6
2015-Feb-17 21:33N 54°59' E 018°16'1212.1
2015-Feb-17 20:33N 54°57' E 018°36'1312.9
2015-Feb-17 19:33N 54°48' E 018°53'18 9.2
2015-Feb-17 17:33N 54°32' E 018°40'4 3.6
2015-Feb-17 16:31N 54°32' E 018°33'0 0.0
2015-Feb-17 15:31N 54°32' E 018°33'0 0.0
2015-Feb-17 14:31N 54°32' E 018°33'0 0.0
2015-Feb-17 13:31N 54°32' E 018°33'0 0.0
2015-Feb-17 12:31N 54°32' E 018°33'0 0.0
2015-Feb-17 11:31N 54°32' E 018°33'0 0.0
2015-Feb-17 10:31N 54°32' E 018°33'  
Track history (hours):
 
Tides and Currents Weather Stations Pressure Air Temp Water Temp Dewpoint Dewpoint Depression Visibility Wind Speed Wind Dir Waves Ship Positions

Frederike Selmer

Last reported at 2015-Feb-27 09:33 UTC. Time now 2015-Mar-03 03:12 UTC.
Position N 36°02' W 005°11'.

Length 188 m; draft 12.6 m.

Type: Cargo ship. MMSI: 538090377.

Date/timePositionNaut miles runAvg speedWind from/ knotsBaromVisibWave heightAir tempDewpointWater temp
2015-Feb-27 09:33N 36°02' W 005°11'1414.3
2015-Feb-27 08:33N 35°57' W 005°28'16012.1
2015-Feb-26 19:20N 36°26' W 008°43'8510.8
2015-Feb-26 11:27N 37°34' W 009°46'1112.0
2015-Feb-26 10:31N 37°45' W 009°50'3511.7
2015-Feb-26 07:31N 38°19' W 009°59'1212.3
2015-Feb-26 06:33N 38°30' W 010°03'1212.3
2015-Feb-26 05:33N 38°43' W 010°06'  
2015-Feb-22 04:08N 50°17' W 001°22'8312.1
2015-Feb-21 21:16N 50°40' E 000°44'1213.4
2015-Feb-21 20:24N 50°48' E 000°57'1214.5
2015-Feb-21 19:34N 50°56' E 001°12'1414.1
2015-Feb-21 18:34N 51°05' E 001°29'1212.1
2015-Feb-21 17:34N 51°13' E 001°44'1111.0
2015-Feb-21 16:34N 51°22' E 001°52'10 9.9
2015-Feb-21 15:34N 51°30' E 002°02'1010.0
2015-Feb-21 14:33N 51°38' E 002°13'46910.6
2015-Feb-19 18:25N 57°48' E 010°31'11 8.8
2015-Feb-19 17:12N 57°46' E 010°50'6 9.0
2015-Feb-19 16:31N 57°42' E 010°59'1112.0
2015-Feb-19 15:33N 57°34' E 011°14'1212.0
2015-Feb-19 14:33N 57°24' E 011°28'1312.6
2015-Feb-19 13:33N 57°12' E 011°36'1212.1
2015-Feb-19 12:33N 57°01' E 011°44'1212.1
2015-Feb-19 11:33N 56°50' E 011°51'1110.6
2015-Feb-19 10:33N 56°39' E 011°48'1212.0
2015-Feb-19 09:32N 56°29' E 011°36'1512.0
2015-Feb-19 08:19N 56°16' E 011°22'1011.6
2015-Feb-19 07:30N 56°08' E 011°13'5510.3
2015-Feb-19 02:07N 55°13' E 011°06'710.7
2015-Feb-19 01:29N 55°07' E 010°59'2010.1
2015-Feb-18 23:27N 54°48' E 010°50'9 9.0
2015-Feb-18 22:28N 54°39' E 010°52'1010.9
2015-Feb-18 21:33N 54°36' E 011°08'1211.6
2015-Feb-18 20:33N 54°32' E 011°27'1110.8
2015-Feb-18 19:33N 54°28' E 011°44'1010.1
2015-Feb-18 18:33N 54°26' E 012°01'9 9.0
2015-Feb-18 17:33N 54°31' E 012°14'8 7.5
2015-Feb-18 16:33N 54°38' E 012°20'1010.3
2015-Feb-18 15:33N 54°43' E 012°35'1110.7
2015-Feb-18 14:30N 54°49' E 012°52'1010.5
2015-Feb-18 13:33N 54°52' E 013°08'1010.2
2015-Feb-18 12:33N 54°52' E 013°26'1111.0
2015-Feb-18 11:33N 54°47' E 013°43'1110.9
2015-Feb-18 10:33N 54°42' E 014°00'1111.0
2015-Feb-18 09:33N 54°39' E 014°18'1110.8
2015-Feb-18 08:30N 54°38' E 014°38'11611.6
2015-Feb-17 22:33N 54°59' E 017°55'1211.6
2015-Feb-17 21:33N 54°59' E 018°16'1212.1
2015-Feb-17 20:33N 54°57' E 018°36'1312.9
2015-Feb-17 19:33N 54°48' E 018°53'18 9.2
2015-Feb-17 17:33N 54°32' E 018°40'4 3.6
2015-Feb-17 16:31N 54°32' E 018°33'0 0.0
2015-Feb-17 15:31N 54°32' E 018°33'0 0.0
2015-Feb-17 14:31N 54°32' E 018°33'0 0.0
2015-Feb-17 13:31N 54°32' E 018°33'0 0.0
2015-Feb-17 12:31N 54°32' E 018°33'0 0.0
2015-Feb-17 11:31N 54°32' E 018°33'0 0.0
2015-Feb-17 10:31N 54°32' E 018°33'  

Dump ship's entire track history